Time;durP1;ratioP1;P1;durP2;ratioP2;P2;SDS_P1;SDS_P2;PMS_P1;PMS_P2;Temp;Humidity;BMP_temperature;BMP_pressure;BME280_temperature;BME280_humidity;BME280_pressure;Samples;Min_cycle;Max_cycle;Signal;HPM_P1;HPM_P2
2023/08/03 00:00:03;;;;;;;2.30;1.90;;;;;;;19.55;97.10;97490.14;109431;1255;58242;-77
2023/08/03 00:02:33;;;;;;;2.50;1.80;;;;;;;19.55;97.82;97494.22;109614;1250;63764;-77
2023/08/03 00:05:02;;;;;;;1.90;1.80;;;;;;;19.54;98.36;97496.20;109611;1251;60226;-77
2023/08/03 00:07:28;;;;;;;2.00;1.70;;;;;;;19.52;99.35;97501.52;109586;1251;64033;-77
2023/08/03 00:09:55;;;;;;;3.10;1.80;;;;;;;19.49;99.75;97508.73;109586;1251;58165;-77
2023/08/03 00:12:22;;;;;;;2.00;1.80;;;;;;;19.46;99.96;97510.36;109582;1251;58079;-77
2023/08/03 00:14:52;;;;;;;6.10;1.90;;;;;;;19.44;100.00;97514.29;109584;1251;65222;-77
2023/08/03 00:17:18;;;;;;;3.10;2.10;;;;;;;19.42;100.00;97511.06;109619;1251;58954;-77
2023/08/03 00:19:45;;;;;;;2.10;1.90;;;;;;;19.41;100.00;97509.94;109608;1251;62466;-77
2023/08/03 00:22:11;;;;;;;2.50;1.90;;;;;;;19.41;100.00;97510.45;109578;1251;58209;-77
2023/08/03 00:24:38;;;;;;;2.50;1.80;;;;;;;19.42;100.00;97515.55;109629;1251;58534;-77
2023/08/03 00:27:05;;;;;;;5.10;2.10;;;;;;;19.42;100.00;97517.39;109581;1251;66434;-77
2023/08/03 00:29:32;;;;;;;2.30;2.10;;;;;;;19.41;100.00;97524.86;109434;1251;58990;-77
2023/08/03 00:32:00;;;;;;;3.40;2.00;;;;;;;19.41;100.00;97527.81;109601;1251;65203;-78
2023/08/03 00:34:28;;;;;;;3.40;2.00;;;;;;;19.40;100.00;97525.09;109576;1251;58157;-77
2023/08/03 00:36:55;;;;;;;3.70;2.20;;;;;;;19.41;100.00;97526.69;109582;1251;58026;-77
2023/08/03 00:39:22;;;;;;;4.00;2.60;;;;;;;19.42;100.00;97526.23;109655;1251;73933;-77
2023/08/03 00:41:49;;;;;;;2.90;1.90;;;;;;;19.41;100.00;97524.29;109485;1251;59199;-77
2023/08/03 00:44:16;;;;;;;2.50;2.00;;;;;;;19.41;100.00;97529.52;109610;1251;64064;-77
2023/08/03 00:46:42;;;;;;;2.60;2.00;;;;;;;19.41;100.00;97532.47;109575;1251;58194;-77
2023/08/03 00:49:09;;;;;;;3.90;2.20;;;;;;;19.40;100.00;97528.26;109631;1251;58133;-78
2023/08/03 00:51:35;;;;;;;3.20;2.20;;;;;;;19.39;100.00;97531.96;109620;1251;65265;-78
2023/08/03 00:54:07;;;;;;;3.40;2.40;;;;;;;19.38;100.00;97532.44;109681;1251;58462;-78
2023/08/03 00:56:34;;;;;;;2.40;2.10;;;;;;;19.39;100.00;97528.42;109626;1251;65049;-77
2023/08/03 00:59:02;;;;;;;2.20;1.90;;;;;;;19.40;100.00;97531.84;109619;1251;58131;-77
2023/08/03 01:01:29;;;;;;;2.70;2.00;;;;;;;19.40;100.00;97543.05;109651;1251;58232;-77
2023/08/03 01:03:56;;;;;;;3.40;2.20;;;;;;;19.39;100.00;97547.98;109403;1251;66283;-77
2023/08/03 01:06:22;;;;;;;2.30;2.10;;;;;;;19.35;100.00;97556.19;109603;1251;61032;-77
2023/08/03 01:08:49;;;;;;;2.60;2.10;;;;;;;19.30;100.00;97560.92;109580;1251;63739;-77
2023/08/03 01:11:15;;;;;;;3.60;2.10;;;;;;;19.29;100.00;97560.88;109507;1251;58265;-77
2023/08/03 01:13:42;;;;;;;3.70;2.80;;;;;;;19.30;100.00;97556.98;109639;1251;58156;-77
2023/08/03 01:16:09;;;;;;;5.20;2.90;;;;;;;19.32;100.00;97549.23;109631;1251;64067;-77
2023/08/03 01:18:37;;;;;;;3.80;2.30;;;;;;;19.34;100.00;97536.60;109634;1251;60070;-77
2023/08/03 01:21:06;;;;;;;2.40;2.20;;;;;;;19.35;100.00;97526.59;109612;1251;64122;-77
2023/08/03 01:23:33;;;;;;;2.20;1.90;;;;;;;19.36;100.00;97521.33;109580;1251;58512;-77
2023/08/03 01:25:59;;;;;;;3.00;2.30;;;;;;;19.38;100.00;97516.77;109375;1251;58390;-77
2023/08/03 01:28:26;;;;;;;2.70;2.00;;;;;;;19.38;100.00;97510.43;109583;1251;65230;-77
2023/08/03 01:30:52;;;;;;;4.20;2.60;;;;;;;19.38;100.00;97514.04;109598;1251;58833;-77
2023/08/03 01:33:19;;;;;;;2.50;2.20;;;;;;;19.38;100.00;97512.99;109649;1251;63746;-78
2023/08/03 01:35:46;;;;;;;2.10;1.90;;;;;;;19.38;100.00;97508.34;109659;1251;58166;-77
2023/08/03 01:38:13;;;;;;;3.30;2.30;;;;;;;19.37;100.00;97505.08;109578;1251;58344;-76
2023/08/03 01:40:41;;;;;;;2.90;2.30;;;;;;;19.35;100.00;97509.27;109640;1251;64001;-77
2023/08/03 01:43:08;;;;;;;3.30;2.50;;;;;;;19.34;100.00;97512.25;109586;1251;60209;-77
2023/08/03 01:45:34;;;;;;;2.50;2.30;;;;;;;19.33;100.00;97516.02;109611;1251;65593;-77
2023/08/03 01:48:01;;;;;;;3.70;2.20;;;;;;;19.32;100.00;97522.38;109606;1251;58192;-77
2023/08/03 01:50:27;;;;;;;3.90;2.20;;;;;;;19.33;100.00;97527.34;109238;1252;58207;-76
2023/08/03 01:52:54;;;;;;;4.80;2.40;;;;;;;19.34;100.00;97528.13;109632;1251;66526;-77
2023/08/03 01:55:21;;;;;;;4.30;2.40;;;;;;;19.33;100.00;97529.08;109638;1251;58980;-77
2023/08/03 01:57:47;;;;;;;2.90;2.30;;;;;;;19.33;100.00;97529.12;109596;1251;63844;-77
2023/08/03 02:00:32;;;;;;;3.70;2.30;;;;;;;19.33;100.00;97533.31;109576;1251;58263;-77
2023/08/03 02:02:59;;;;;;;2.80;2.40;;;;;;;19.32;100.00;97533.59;109665;1251;58233;-77
2023/08/03 02:05:26;;;;;;;3.60;2.70;;;;;;;19.32;100.00;97528.58;109675;1250;65009;-77
2023/08/03 02:07:55;;;;;;;4.70;2.50;;;;;;;19.32;100.00;97537.16;109617;1251;60113;-77
2023/08/03 02:10:23;;;;;;;2.90;2.50;;;;;;;19.34;100.00;97543.80;109652;1251;62415;-77
2023/08/03 02:12:50;;;;;;;3.40;2.80;;;;;;;19.35;100.00;97559.38;109643;1251;58927;-77
2023/08/03 02:15:17;;;;;;;3.90;2.30;;;;;;;19.33;100.00;97571.48;109687;1251;59121;-77
2023/08/03 02:17:44;;;;;;;2.60;2.20;;;;;;;19.30;100.00;97577.75;109650;1251;64849;-77
2023/08/03 02:20:12;;;;;;;3.90;2.60;;;;;;;19.28;100.00;97586.30;109679;1251;61376;-78
2023/08/03 02:22:38;;;;;;;4.60;2.80;;;;;;;19.26;100.00;97591.21;109657;1251;64134;-78
2023/08/03 02:25:06;;;;;;;3.80;2.60;;;;;;;19.22;100.00;97596.17;109624;1251;58933;-78
2023/08/03 02:27:32;;;;;;;3.80;3.00;;;;;;;19.21;100.00;97602.30;109640;1251;58866;-77
2023/08/03 02:29:59;;;;;;;4.70;2.80;;;;;;;19.20;100.00;97603.50;109593;1251;64881;-77
2023/08/03 02:32:27;;;;;;;2.80;2.40;;;;;;;19.20;100.00;97607.20;109621;1251;58990;-77
2023/08/03 02:34:54;;;;;;;3.80;3.10;;;;;;;19.21;100.00;97608.04;109587;1251;63820;-77
2023/08/03 02:37:20;;;;;;;5.40;3.00;;;;;;;19.21;100.00;97605.09;109619;1251;59021;-77
2023/08/03 02:39:47;;;;;;;3.80;3.10;;;;;;;19.22;100.00;97605.02;109607;1251;58839;-77
2023/08/03 02:42:13;;;;;;;3.90;3.60;;;;;;;19.23;100.00;97609.89;109584;1251;64755;-77
2023/08/03 02:44:40;;;;;;;4.90;4.50;;;;;;;19.25;100.00;97602.73;109622;1251;60315;-77
2023/08/03 02:47:07;;;;;;;4.50;4.00;;;;;;;19.27;100.00;97602.29;109599;1251;64125;-76
2023/08/03 02:49:34;;;;;;;6.40;4.40;;;;;;;19.29;100.00;97613.52;109578;1251;58949;-77
2023/08/03 02:52:00;;;;;;;7.90;4.80;;;;;;;19.31;100.00;97618.16;109637;1251;59127;-77
2023/08/03 02:54:27;;;;;;;6.00;5.00;;;;;;;19.32;100.00;97625.23;109589;1250;66098;-76
2023/08/03 02:56:53;;;;;;;4.30;3.90;;;;;;;19.34;100.00;97640.55;109452;1251;61035;-77
2023/08/03 02:59:20;;;;;;;4.70;3.40;;;;;;;19.35;100.00;97663.21;109598;1250;64218;-77
2023/08/03 03:01:46;;;;;;;3.70;3.30;;;;;;;19.37;100.00;97682.39;109330;1251;59020;-77
2023/08/03 03:04:13;;;;;;;5.30;2.80;;;;;;;19.42;100.00;97692.30;109665;1251;58976;-77
2023/08/03 03:06:42;;;;;;;2.80;2.50;;;;;;;19.50;100.00;97694.10;109403;1251;66024;-77
2023/08/03 03:09:08;;;;;;;3.60;2.10;;;;;;;19.59;100.00;97702.17;109360;1251;59030;-76
2023/08/03 03:11:35;;;;;;;3.10;2.30;;;;;;;19.69;100.00;97710.70;109685;1250;63760;-77
2023/08/03 03:14:02;;;;;;;2.40;2.00;;;;;;;19.80;100.00;97713.15;109644;1250;58938;-76
2023/08/03 03:16:28;;;;;;;3.40;2.30;;;;;;;19.89;100.00;97727.16;109301;1250;59019;-77
2023/08/03 03:18:55;;;;;;;4.30;2.10;;;;;;;19.95;100.00;97742.95;109677;1249;64826;-77
2023/08/03 03:21:21;;;;;;;2.10;1.90;;;;;;;19.96;100.00;97747.21;109637;1250;60149;-76
2023/08/03 03:23:48;;;;;;;2.70;2.50;;;;;;;19.89;100.00;97756.09;109697;1250;63758;-76
2023/08/03 03:26:15;;;;;;;2.90;2.10;;;;;;;19.81;100.00;97762.37;109688;1250;58891;-77
2023/08/03 03:28:42;;;;;;;2.60;2.00;;;;;;;19.72;100.00;97761.89;109338;1250;59032;-76
2023/08/03 03:31:08;;;;;;;2.20;2.00;;;;;;;19.63;100.00;97765.38;109675;1250;66036;-76
2023/08/03 03:33:35;;;;;;;2.60;2.30;;;;;;;19.54;100.00;97761.20;109662;1250;60141;-76
2023/08/03 03:36:01;;;;;;;2.20;2.00;;;;;;;19.47;100.00;97761.65;109385;1250;64102;-76
2023/08/03 03:38:28;;;;;;;2.30;2.10;;;;;;;19.42;100.00;97756.52;109645;1250;59044;-76
2023/08/03 03:40:54;;;;;;;3.40;2.50;;;;;;;19.37;100.00;97751.71;109680;1250;59374;-76
2023/08/03 03:43:21;;;;;;;3.90;2.40;;;;;;;19.33;100.00;97742.33;109653;1250;64774;-77
2023/08/03 03:45:47;;;;;;;3.00;2.80;;;;;;;19.30;100.00;97739.13;109437;1250;59870;-77
2023/08/03 03:48:14;;;;;;;2.80;2.60;;;;;;;19.28;100.00;97734.99;109653;1250;59225;-77
2023/08/03 03:50:40;;;;;;;3.10;2.80;;;;;;;19.27;100.00;97741.21;109701;1250;59826;-77
2023/08/03 03:53:07;;;;;;;4.10;2.50;;;;;;;19.26;100.00;97742.41;109675;1250;58905;-76
2023/08/03 03:55:33;;;;;;;4.50;2.50;;;;;;;19.26;100.00;97736.67;109704;1254;64489;-77
2023/08/03 03:58:00;;;;;;;3.50;2.20;;;;;;;19.26;100.00;97724.75;109718;1250;58978;-77
2023/08/03 04:00:27;;;;;;;2.70;2.40;;;;;;;19.29;100.00;97720.34;109734;1250;62844;-77
2023/08/03 04:02:54;;;;;;;3.60;2.40;;;;;;;19.31;100.00;97717.23;109352;1250;58954;-77
2023/08/03 04:05:20;;;;;;;2.40;2.00;;;;;;;19.32;100.00;97709.56;109337;1250;59037;-77
2023/08/03 04:07:47;;;;;;;3.30;2.30;;;;;;;19.33;100.00;97705.87;109717;1249;64937;-77
2023/08/03 04:10:14;;;;;;;3.40;3.00;;;;;;;19.33;100.00;97700.77;109743;1250;58993;-77
2023/08/03 04:12:40;;;;;;;2.90;2.40;;;;;;;19.34;100.00;97698.98;109726;1250;62826;-77
2023/08/03 04:15:07;;;;;;;2.80;2.50;;;;;;;19.36;100.00;97700.13;109621;1250;58977;-77
2023/08/03 04:17:34;;;;;;;2.70;2.50;;;;;;;19.39;100.00;97700.16;109747;1250;58868;-76
2023/08/03 04:20:01;;;;;;;2.50;2.20;;;;;;;19.42;100.00;97702.70;109578;1250;66042;-77
2023/08/03 04:22:27;;;;;;;2.80;2.40;;;;;;;19.45;100.00;97704.34;109655;1250;58984;-77
2023/08/03 04:24:54;;;;;;;3.00;2.60;;;;;;;19.47;100.00;97703.13;109682;1250;64145;-77
2023/08/03 04:27:20;;;;;;;3.10;2.20;;;;;;;19.49;100.00;97703.02;109408;1250;59018;-76
2023/08/03 04:29:47;;;;;;;2.90;2.50;;;;;;;19.51;100.00;97702.59;109662;1250;60199;-77
2023/08/03 04:32:13;;;;;;;3.30;2.50;;;;;;;19.54;100.00;97699.21;109661;1250;66118;-78
2023/08/03 04:34:40;;;;;;;3.50;2.70;;;;;;;19.56;100.00;97704.04;109732;1250;60134;-78
2023/08/03 04:37:06;;;;;;;3.40;3.00;;;;;;;19.56;100.00;97709.08;109674;1250;62806;-78
2023/08/03 04:39:33;;;;;;;3.10;2.60;;;;;;;19.55;100.00;97712.73;109697;1250;58955;-78
2023/08/03 04:41:59;;;;;;;3.20;2.90;;;;;;;19.57;100.00;97716.29;109699;1250;58969;-78
2023/08/03 04:44:26;;;;;;;3.40;3.00;;;;;;;19.59;100.00;97710.83;109730;1250;64529;-78
2023/08/03 04:46:52;;;;;;;2.80;2.60;;;;;;;19.63;100.00;97719.52;109693;1250;58981;-78
2023/08/03 04:49:19;;;;;;;4.00;2.90;;;;;;;19.65;100.00;97717.80;109351;1250;64051;-77
2023/08/03 04:51:46;;;;;;;3.60;3.10;;;;;;;19.68;100.00;97718.17;109660;1250;59038;-77
2023/08/03 04:54:13;;;;;;;3.10;2.90;;;;;;;19.71;100.00;97714.17;109618;1250;59110;-77
2023/08/03 04:56:39;;;;;;;3.40;3.10;;;;;;;19.73;100.00;97714.13;109697;1250;66286;-77
2023/08/03 04:59:06;;;;;;;3.80;3.50;;;;;;;19.74;100.00;97715.63;109291;1249;59061;-77
2023/08/03 05:01:33;;;;;;;3.30;3.00;;;;;;;19.74;100.00;97711.67;109697;1250;62868;-77
2023/08/03 05:04:00;;;;;;;3.80;3.20;;;;;;;19.74;100.00;97711.30;109617;1250;58968;-78
2023/08/03 05:06:28;;;;;;;3.60;3.30;;;;;;;19.74;100.00;97708.77;109731;1250;59013;-78
2023/08/03 05:08:54;;;;;;;3.90;2.80;;;;;;;19.75;100.00;97707.44;109650;1250;65267;-77
2023/08/03 05:11:21;;;;;;;3.30;3.00;;;;;;;19.76;100.00;97711.31;109742;1250;59377;-79
2023/08/03 05:13:48;;;;;;;3.80;3.10;;;;;;;19.77;100.00;97722.21;109675;1250;64074;-78
2023/08/03 05:16:19;;;;;;;3.90;3.00;;;;;;;19.75;100.00;97726.41;109688;1250;58957;-78
2023/08/03 05:18:46;;;;;;;3.70;2.70;;;;;;;19.74;100.00;97719.11;109726;1250;59004;-77
2023/08/03 05:21:12;;;;;;;4.50;3.10;;;;;;;19.74;100.00;97721.52;109693;1250;66095;-77
2023/08/03 05:23:39;;;;;;;4.20;3.60;;;;;;;19.76;100.00;97721.92;109704;1250;61860;-77
2023/08/03 05:26:06;;;;;;;4.30;2.80;;;;;;;19.77;100.00;97726.21;109644;1250;62617;-77
2023/08/03 05:28:32;;;;;;;5.00;3.20;;;;;;;19.75;100.00;97731.94;109662;1250;59197;-77
2023/08/03 05:30:59;;;;;;;3.50;3.30;;;;;;;19.74;100.00;97733.49;109669;1250;58997;-77
2023/08/03 05:33:26;;;;;;;3.60;3.00;;;;;;;19.73;100.00;97741.91;109718;1250;66082;-78
2023/08/03 05:35:53;;;;;;;4.40;3.20;;;;;;;19.73;100.00;97748.94;109679;1250;59247;-79
2023/08/03 05:38:19;;;;;;;4.60;3.00;;;;;;;19.71;100.00;97764.00;109430;1250;64198;-78
2023/08/03 05:40:46;;;;;;;4.80;3.40;;;;;;;19.66;100.00;97774.45;109621;1250;59008;-77
2023/08/03 05:43:14;;;;;;;4.00;3.60;;;;;;;19.64;100.00;97775.32;109693;1250;59156;-79
2023/08/03 05:45:47;;;;;;;5.10;3.70;;;;;;;19.64;100.00;97768.46;109704;1250;64743;-78
2023/08/03 05:48:19;;;;;;;4.80;3.40;;;;;;;19.65;100.00;97771.48;109712;1249;60200;-78
2023/08/03 05:50:51;;;;;;;4.50;3.20;;;;;;;19.67;100.00;97774.70;109674;1250;64128;-78
2023/08/03 05:53:18;;;;;;;5.80;4.10;;;;;;;19.68;100.00;97781.81;109705;1250;59046;-78
2023/08/03 05:55:46;;;;;;;5.10;3.90;;;;;;;19.69;100.00;97784.36;109708;1250;58891;-77
2023/08/03 05:58:15;;;;;;;4.40;4.00;;;;;;;19.70;100.00;97780.67;109536;1250;66068;-79
2023/08/03 06:00:46;;;;;;;3.60;3.30;;;;;;;19.72;100.00;97775.36;109649;1250;59134;-78
2023/08/03 06:03:14;;;;;;;4.80;3.40;;;;;;;19.74;100.00;97777.80;109635;1250;65225;-78
2023/08/03 06:05:50;;;;;;;4.10;3.70;;;;;;;19.75;100.00;97782.40;109674;1250;58989;-78
2023/08/03 06:08:26;;;;;;;3.90;3.60;;;;;;;19.74;100.00;97784.45;109717;1250;60544;-78
2023/08/03 06:10:55;;;;;;;5.80;4.20;;;;;;;19.74;100.00;97786.31;109699;1250;66110;-78
2023/08/03 06:13:27;;;;;;;7.00;4.00;;;;;;;19.73;100.00;97782.85;109694;1249;59075;-78
2023/08/03 06:15:53;;;;;;;4.90;4.00;;;;;;;19.71;100.00;97783.38;109656;1250;65037;-78
2023/08/03 06:18:21;;;;;;;4.20;3.80;;;;;;;19.71;100.00;97787.50;109692;1250;58973;-78
2023/08/03 06:20:50;;;;;;;4.30;3.50;;;;;;;19.70;100.00;97793.98;109652;1250;58974;-78
2023/08/03 06:23:22;;;;;;;5.20;4.20;;;;;;;19.69;100.00;97802.74;109667;1250;64482;-78
2023/08/03 06:25:51;;;;;;;5.50;4.10;;;;;;;19.68;100.00;97805.92;109713;1250;59850;-78
2023/08/03 06:28:20;;;;;;;5.80;3.90;;;;;;;19.66;100.00;97808.34;109649;1250;62582;-78
2023/08/03 06:30:48;;;;;;;4.30;3.90;;;;;;;19.63;100.00;97810.04;109567;1250;58957;-78
2023/08/03 06:33:21;;;;;;;4.70;3.90;;;;;;;19.61;100.00;97808.77;109445;1250;59762;-78
2023/08/03 06:35:51;;;;;;;4.00;3.70;;;;;;;19.61;100.00;97813.88;109368;1250;66122;-79
2023/08/03 06:38:21;;;;;;;4.00;3.70;;;;;;;19.60;100.00;97816.45;109616;1249;59920;-78
2023/08/03 06:40:49;;;;;;;5.30;3.90;;;;;;;19.64;100.00;97809.01;109669;1250;65058;-78
2023/08/03 06:43:16;;;;;;;4.40;3.80;;;;;;;19.67;100.00;97810.28;109534;1250;59005;-77
2023/08/03 06:45:43;;;;;;;5.20;4.50;;;;;;;19.70;100.00;97820.80;109677;1250;58874;-76
2023/08/03 06:48:11;;;;;;;6.30;3.80;;;;;;;19.74;100.00;97824.70;109714;1250;66961;-76
2023/08/03 06:50:38;;;;;;;5.60;4.20;;;;;;;19.78;100.00;97834.16;109697;1250;59091;-77
2023/08/03 06:53:05;;;;;;;5.00;4.00;;;;;;;19.80;100.00;97847.01;109692;1250;62805;-77
2023/08/03 06:55:32;;;;;;;4.90;4.10;;;;;;;19.81;100.00;97853.05;109591;1250;58959;-77
2023/08/03 06:57:58;;;;;;;4.50;4.10;;;;;;;19.80;100.00;97864.89;109667;1250;59011;-77
2023/08/03 07:00:26;;;;;;;5.30;4.70;;;;;;;19.78;100.00;97877.62;109589;1250;64558;-77
2023/08/03 07:02:53;;;;;;;6.00;4.10;;;;;;;19.73;100.00;97881.39;109647;1250;59018;-77
2023/08/03 07:05:20;;;;;;;6.10;4.30;;;;;;;19.69;100.00;97875.64;109647;1250;63342;-78
2023/08/03 07:07:46;;;;;;;6.60;4.00;;;;;;;19.66;100.00;97878.42;109647;1250;59234;-77
2023/08/03 07:10:13;;;;;;;5.40;3.60;;;;;;;19.63;100.00;97889.80;109677;1250;61242;-77
2023/08/03 07:12:40;;;;;;;6.50;3.90;;;;;;;19.61;100.00;97905.18;109684;1250;58959;-77
2023/08/03 07:15:07;;;;;;;5.90;4.50;;;;;;;19.61;100.00;97904.31;109760;1250;58981;-78
2023/08/03 07:17:33;;;;;;;5.40;4.30;;;;;;;19.61;100.00;97899.92;109229;1250;64738;-77
2023/08/03 07:20:00;;;;;;;6.40;4.00;;;;;;;19.64;100.00;97898.74;109652;1251;58929;-78
2023/08/03 07:22:26;;;;;;;4.20;3.70;;;;;;;19.67;100.00;97897.94;109637;1250;59024;-78
2023/08/03 07:24:54;;;;;;;3.80;3.30;;;;;;;19.73;100.00;97897.80;109736;1249;67226;-78
2023/08/03 07:27:20;;;;;;;4.40;3.20;;;;;;;19.75;100.00;97883.45;109705;1250;59024;-79
2023/08/03 07:29:47;;;;;;;3.70;3.10;;;;;;;19.79;100.00;97881.26;109635;1250;64027;-78
2023/08/03 07:32:13;;;;;;;4.00;2.60;;;;;;;19.83;100.00;97878.89;109656;1250;58966;-79
2023/08/03 07:34:40;;;;;;;2.50;2.30;;;;;;;19.87;100.00;97882.40;109689;1250;58953;-77
2023/08/03 07:37:06;;;;;;;3.00;2.40;;;;;;;19.90;100.00;97887.08;109671;1250;65723;-77
2023/08/03 07:39:33;;;;;;;4.90;2.60;;;;;;;19.94;100.00;97879.48;109711;1250;59304;-77
2023/08/03 07:41:59;;;;;;;4.40;2.50;;;;;;;20.05;100.00;97870.21;109469;1251;63779;-77
2023/08/03 07:44:26;;;;;;;3.90;2.40;;;;;;;20.22;100.00;97871.98;109652;1250;58960;-77
2023/08/03 07:46:52;;;;;;;2.60;2.10;;;;;;;20.33;100.00;97878.45;109629;1250;58963;-78
2023/08/03 07:49:20;;;;;;;2.90;2.10;;;;;;;20.36;100.00;97880.50;109690;1250;67105;-77
2023/08/03 07:51:50;;;;;;;3.50;2.40;;;;;;;20.36;100.00;97877.25;109634;1252;58990;-78
2023/08/03 07:54:16;;;;;;;2.40;2.20;;;;;;;20.36;100.00;97877.41;109463;1250;64171;-79
2023/08/03 07:56:43;;;;;;;3.80;3.20;;;;;;;20.33;100.00;97876.64;109664;1250;58981;-78
2023/08/03 07:59:10;;;;;;;4.60;4.10;;;;;;;20.31;100.00;97878.32;109340;1250;59177;-78
2023/08/03 08:01:37;;;;;;;3.70;3.40;;;;;;;20.28;100.00;97877.83;109709;1250;66107;-79
2023/08/03 08:04:04;;;;;;;3.70;2.70;;;;;;;20.24;100.00;97873.12;109425;1251;59054;-79
2023/08/03 08:06:30;;;;;;;3.40;2.70;;;;;;;20.19;100.00;97873.45;109646;1250;64067;-77
2023/08/03 08:08:57;;;;;;;2.50;2.30;;;;;;;20.14;100.00;97873.84;109652;1251;59049;-77
2023/08/03 08:11:23;;;;;;;4.30;2.90;;;;;;;20.10;100.00;97866.23;109732;1250;58858;-77
2023/08/03 08:13:50;;;;;;;3.40;3.10;;;;;;;20.08;100.00;97863.00;109674;1250;64767;-78
2023/08/03 08:16:17;;;;;;;3.40;2.50;;;;;;;20.06;100.00;97866.14;109588;1250;60024;-79
2023/08/03 08:18:43;;;;;;;3.20;2.10;;;;;;;20.03;100.00;97862.98;109697;1251;64141;-77
2023/08/03 08:21:12;;;;;;;2.20;2.00;;;;;;;20.00;100.00;97868.90;109636;1251;59060;-77
2023/08/03 08:23:39;;;;;;;2.20;2.00;;;;;;;19.96;100.00;97874.84;109659;1250;61548;-77
2023/08/03 08:26:13;;;;;;;2.10;1.90;;;;;;;19.93;100.00;97874.27;109646;1250;66162;-77
2023/08/03 08:28:41;;;;;;;2.30;2.10;;;;;;;19.93;100.00;97880.96;109710;1251;59866;-78
2023/08/03 08:31:08;;;;;;;3.10;2.50;;;;;;;19.92;100.00;97876.77;109615;1251;64084;-78
2023/08/03 08:33:36;;;;;;;5.40;3.10;;;;;;;19.91;100.00;97875.59;109627;1251;58923;-78
2023/08/03 08:36:03;;;;;;;3.40;3.00;;;;;;;19.90;100.00;97871.23;109715;1250;59205;-78
2023/08/03 08:38:31;;;;;;;6.00;3.20;;;;;;;19.87;100.00;97862.89;109360;1254;67360;-78
2023/08/03 08:41:01;;;;;;;4.20;2.60;;;;;;;19.87;100.00;97873.16;109055;1254;59045;-78
2023/08/03 08:43:28;;;;;;;2.60;2.40;;;;;;;19.90;100.00;97877.14;109079;1254;63999;-78
2023/08/03 08:45:56;;;;;;;4.20;2.50;;;;;;;19.92;100.00;97876.17;109360;1254;59053;-78
2023/08/03 08:48:23;;;;;;;3.00;2.50;;;;;;;19.96;100.00;97877.15;109400;1255;61791;-78
2023/08/03 08:50:51;;;;;;;4.50;2.40;;;;;;;20.02;100.00;97872.30;109429;1254;64838;-77
2023/08/03 08:53:18;;;;;;;4.80;2.80;;;;;;;20.09;100.00;97861.60;109219;1254;61347;-77
2023/08/03 08:55:46;;;;;;;2.90;2.60;;;;;;;20.15;100.00;97868.58;109359;1254;64141;-78
2023/08/03 08:58:13;;;;;;;3.20;2.40;;;;;;;20.22;100.00;97869.81;109372;1254;58939;-78
2023/08/03 09:00:44;;;;;;;3.70;2.90;;;;;;;20.29;100.00;97868.52;109345;1254;59092;-77
2023/08/03 09:03:13;;;;;;;5.90;2.80;;;;;;;20.38;100.00;97861.83;109368;1254;66260;-77
2023/08/03 09:05:40;;;;;;;6.40;2.50;;;;;;;20.48;100.00;97855.16;109427;1254;61215;-78
2023/08/03 09:08:10;;;;;;;7.10;2.40;;;;;;;20.56;100.00;97848.20;109327;1259;63295;-77
2023/08/03 09:10:52;;;;;;;3.20;2.80;;;;;;;20.63;100.00;97853.42;109488;1252;59099;-76
2023/08/03 09:13:36;;;;;;;2.80;2.10;;;;;;;20.75;100.00;97867.20;109520;1253;58961;-77
2023/08/03 09:16:03;;;;;;;4.30;2.50;;;;;;;20.95;100.00;97874.45;109286;1254;307772;-77
2023/08/03 09:18:31;;;;;;;2.40;2.20;;;;;;;21.19;100.00;97875.95;109480;1253;59023;-77
2023/08/03 09:21:08;;;;;;;1.80;1.70;;;;;;;21.38;100.00;97879.61;109458;1252;63099;-77
2023/08/03 09:23:36;;;;;;;2.80;2.20;;;;;;;21.54;100.00;97877.70;109476;1253;59020;-77
2023/08/03 09:26:06;;;;;;;2.40;2.00;;;;;;;21.63;100.00;97872.80;109351;1253;59035;-77
2023/08/03 09:28:38;;;;;;;3.90;2.20;;;;;;;21.62;100.00;97854.02;109476;1253;65730;-78
2023/08/03 09:31:06;;;;;;;2.90;1.60;;;;;;;21.55;100.00;97834.91;109486;1254;58999;-77
2023/08/03 09:33:33;;;;;;;2.90;2.10;;;;;;;21.45;100.00;97839.79;109516;1254;65221;-77
2023/08/03 09:36:10;;;;;;;2.50;2.30;;;;;;;21.37;100.00;97848.23;109521;1253;59061;-78
2023/08/03 09:38:38;;;;;;;2.20;2.00;;;;;;;21.28;100.00;97845.95;109517;1252;59022;-78
2023/08/03 09:41:05;;;;;;;4.50;2.60;;;;;;;21.20;100.00;97860.08;109537;1253;66016;-77
2023/08/03 09:43:32;;;;;;;2.80;2.40;;;;;;;21.12;100.00;97864.73;109529;1253;59027;-77
2023/08/03 09:45:59;;;;;;;2.60;2.40;;;;;;;21.10;100.00;97856.56;109510;1252;64164;-77
2023/08/03 09:48:26;;;;;;;2.30;2.10;;;;;;;21.10;100.00;97857.39;109534;1252;58961;-77
2023/08/03 09:50:55;;;;;;;2.10;1.90;;;;;;;21.11;100.00;97850.97;109516;1254;59014;-78
2023/08/03 09:53:25;;;;;;;6.90;2.70;;;;;;;21.10;100.00;97829.53;109548;1253;64800;-78
2023/08/03 09:56:03;;;;;;;12.20;2.50;;;;;;;21.04;100.00;97817.57;109487;1253;59000;-77
2023/08/03 09:58:46;;;;;;;5.10;2.30;;;;;;;20.94;100.00;97848.27;109553;1253;63914;-77
2023/08/03 10:01:15;;;;;;;3.50;2.10;;;;;;;20.86;100.00;97860.13;109622;1251;59160;-78
2023/08/03 10:03:46;;;;;;;3.40;2.20;;;;;;;20.78;100.00;97874.77;109665;1250;58979;-77
2023/08/03 10:06:23;;;;;;;2.80;2.40;;;;;;;20.71;100.00;97884.02;109690;1250;65034;-78
2023/08/03 10:09:00;;;;;;;3.00;2.60;;;;;;;20.66;100.00;97901.34;109687;1251;60215;-78
2023/08/03 10:11:31;;;;;;;3.20;2.90;;;;;;;20.59;100.00;97907.90;109712;1250;65199;-78
2023/08/03 10:14:03;;;;;;;4.70;2.90;;;;;;;20.55;100.00;97904.48;109621;1250;58934;-78
2023/08/03 10:16:32;;;;;;;5.50;3.50;;;;;;;20.49;100.00;97898.16;109631;1251;59034;-78
2023/08/03 10:19:01;;;;;;;5.00;3.20;;;;;;;20.42;100.00;97893.92;109665;1250;64455;-77
2023/08/03 10:21:28;;;;;;;4.60;3.30;;;;;;;20.36;100.00;97899.73;109626;1251;58984;-78
2023/08/03 10:24:07;;;;;;;3.30;2.40;;;;;;;20.33;100.00;97904.25;109598;1251;64075;-78
2023/08/03 10:26:33;;;;;;;3.30;2.60;;;;;;;20.31;100.00;97916.11;109640;1251;58960;-78
2023/08/03 10:29:00;;;;;;;4.60;2.40;;;;;;;20.27;100.00;97921.83;109652;1249;59054;-78
2023/08/03 10:31:28;;;;;;;2.30;2.10;;;;;;;20.27;100.00;97915.58;109624;1251;65750;-78
2023/08/03 10:33:55;;;;;;;3.50;2.50;;;;;;;20.27;100.00;97919.11;109654;1250;59006;-78
2023/08/03 10:36:30;;;;;;;3.60;2.40;;;;;;;20.28;100.00;97923.29;109670;1251;64605;-78
2023/08/03 10:38:59;;;;;;;4.90;2.80;;;;;;;20.30;100.00;97921.80;109672;1251;59077;-78
2023/08/03 10:41:28;;;;;;;5.30;2.70;;;;;;;20.30;100.00;97916.39;109710;1251;59101;-78
2023/08/03 10:44:14;;;;;;;6.50;2.80;;;;;;;20.29;100.00;97918.09;109616;1251;65864;-78
2023/08/03 10:46:43;;;;;;;5.60;2.50;;;;;;;20.24;100.00;97929.11;109021;1261;59062;-78
2023/08/03 10:49:19;;;;;;;5.60;3.50;;;;;;;20.18;100.00;97925.77;109008;1258;65170;-79
2023/08/03 10:51:47;;;;;;;9.10;3.00;;;;;;;20.20;100.00;97918.54;108943;1258;59104;-77
2023/08/03 10:54:15;;;;;;;4.40;2.80;;;;;;;20.22;100.00;97927.67;108953;1260;59231;-78
2023/08/03 10:57:05;;;;;;;5.80;3.00;;;;;;;20.23;100.00;97932.25;109007;1258;64666;-77
2023/08/03 10:59:40;;;;;;;4.80;2.70;;;;;;;20.25;100.00;97945.94;109054;1257;59347;-77
2023/08/03 11:02:18;;;;;;;5.40;2.80;;;;;;;20.25;100.00;97953.77;109003;1259;63763;-77
2023/08/03 11:04:46;;;;;;;5.00;2.80;;;;;;;20.27;100.00;97959.33;109007;1257;59418;-77
2023/08/03 11:07:16;;;;;;;5.50;2.80;;;;;;;20.30;100.00;97958.65;109019;1259;59089;-77
2023/08/03 11:09:48;;;;;;;4.50;2.80;;;;;;;20.32;100.00;97965.52;109051;1257;66084;-77
2023/08/03 11:12:16;;;;;;;5.30;3.50;;;;;;;20.36;100.00;97959.84;109029;1258;59113;-78
2023/08/03 11:14:45;;;;;;;3.60;2.70;;;;;;;20.40;100.00;97954.06;109003;1257;62746;-77
2023/08/03 11:17:15;;;;;;;6.30;3.20;;;;;;;20.45;100.00;97956.28;109001;1260;59610;-77
2023/08/03 11:19:43;;;;;;;5.50;3.60;;;;;;;20.53;100.00;97952.28;108927;1257;59133;-78